Skip Navigation Links Skip Navigation Links

Current Weather

Johnson County Executive, Olathe, Kan.

For information only: do not use for flight planning or navigation.
Latest weather
Observation time Monday, October 18, 2021 2:53 PM CDT
Local time Monday, October 18, 2021 3:32 PM CDT
Flight conditions Visual Meteorological Conditions
Winds
Wind direction South (170°)
Wind speed 17 mph
Visibility 10 mi.
Sky condition
Ceiling unlimited
Sky clear
Temperature 72°F
Dewpoint 44°F
Altimeter 30.04 in.Hg
Derived measurements
Relative humidity 37%
Density altitude 1944 ft.
Sea-level pressure 30.02 in.Hg
Remarks
Automated weather observing station with precipitation discriminator.
METAR KOJC 181953Z 17015KT 10SM CLR 22/07 A3004 RMK AO2 SLP166 T02220067

Settings

Location code

InnerDrive.Weather 4.0.6770.0 Release CLR 4.0.30319.42000
Copyright ©2018 Inner Drive Technology. All rights reserved. Portions Copyright ©1986-2018 David Braverman.

Find weather

Site navigation


Skip Navigation Links

Place info

Page info

PayPal - The safer, easier way to pay online!

Return home.

Copyright ©2021 Inner Drive Technology. Purveyors of fine, hand-crafted computer software. Page printed 2021-10-18T20:32:51 UTC.